sensor_id;sensor_type;location;lat;lon;timestamp;P1;durP1;ratioP1;P2;durP2;ratioP2
705;SDS011;21234;48.690;9.016;2022-07-22T00:00:58;7.47;;;5.90;;
705;SDS011;21234;48.690;9.016;2022-07-22T00:03:26;7.20;;;6.53;;
705;SDS011;21234;48.690;9.016;2022-07-22T00:05:52;8.53;;;7.67;;
705;SDS011;21234;48.690;9.016;2022-07-22T00:08:19;12.07;;;6.50;;
705;SDS011;21234;48.690;9.016;2022-07-22T00:10:46;6.33;;;5.83;;
705;SDS011;21234;48.690;9.016;2022-07-22T00:13:13;6.30;;;5.67;;
705;SDS011;21234;48.690;9.016;2022-07-22T00:15:39;6.33;;;5.63;;
705;SDS011;21234;48.690;9.016;2022-07-22T00:18:06;7.70;;;6.67;;
705;SDS011;21234;48.690;9.016;2022-07-22T00:20:35;6.73;;;6.03;;
705;SDS011;21234;48.690;9.016;2022-07-22T00:23:02;7.60;;;6.30;;
705;SDS011;21234;48.690;9.016;2022-07-22T00:25:28;5.90;;;5.30;;
705;SDS011;21234;48.690;9.016;2022-07-22T00:27:55;7.30;;;5.90;;
705;SDS011;21234;48.690;9.016;2022-07-22T00:30:22;7.77;;;7.10;;
705;SDS011;21234;48.690;9.016;2022-07-22T00:32:49;6.50;;;5.90;;
705;SDS011;21234;48.690;9.016;2022-07-22T00:35:16;7.13;;;6.60;;
705;SDS011;21234;48.690;9.016;2022-07-22T00:37:44;6.50;;;5.90;;
705;SDS011;21234;48.690;9.016;2022-07-22T00:40:11;6.83;;;6.03;;
705;SDS011;21234;48.690;9.016;2022-07-22T00:42:38;7.60;;;7.00;;
705;SDS011;21234;48.690;9.016;2022-07-22T00:45:05;7.57;;;6.90;;
705;SDS011;21234;48.690;9.016;2022-07-22T00:47:33;7.00;;;6.30;;
705;SDS011;21234;48.690;9.016;2022-07-22T00:50:00;7.77;;;6.00;;
705;SDS011;21234;48.690;9.016;2022-07-22T00:52:27;6.77;;;5.73;;
705;SDS011;21234;48.690;9.016;2022-07-22T00:54:56;8.00;;;6.67;;
705;SDS011;21234;48.690;9.016;2022-07-22T00:57:24;6.80;;;6.10;;
705;SDS011;21234;48.690;9.016;2022-07-22T00:59:51;7.57;;;6.87;;
705;SDS011;21234;48.690;9.016;2022-07-22T01:02:18;7.10;;;6.40;;
705;SDS011;21234;48.690;9.016;2022-07-22T01:04:45;7.93;;;7.13;;
705;SDS011;21234;48.690;9.016;2022-07-22T01:07:11;7.40;;;6.70;;
705;SDS011;21234;48.690;9.016;2022-07-22T01:09:41;7.80;;;6.40;;
705;SDS011;21234;48.690;9.016;2022-07-22T01:12:13;7.27;;;6.67;;
705;SDS011;21234;48.690;9.016;2022-07-22T01:14:40;7.37;;;6.67;;
705;SDS011;21234;48.690;9.016;2022-07-22T01:17:06;7.00;;;6.33;;
705;SDS011;21234;48.690;9.016;2022-07-22T01:19:35;6.70;;;6.10;;
705;SDS011;21234;48.690;9.016;2022-07-22T01:22:04;7.00;;;6.30;;
705;SDS011;21234;48.690;9.016;2022-07-22T01:24:31;7.13;;;6.33;;
705;SDS011;21234;48.690;9.016;2022-07-22T01:26:58;7.13;;;6.43;;
705;SDS011;21234;48.690;9.016;2022-07-22T01:29:25;7.73;;;6.93;;
705;SDS011;21234;48.690;9.016;2022-07-22T01:31:52;6.13;;;5.53;;
705;SDS011;21234;48.690;9.016;2022-07-22T01:34:19;7.10;;;6.50;;
705;SDS011;21234;48.690;9.016;2022-07-22T01:36:45;6.97;;;6.37;;
705;SDS011;21234;48.690;9.016;2022-07-22T01:39:14;6.60;;;6.00;;
705;SDS011;21234;48.690;9.016;2022-07-22T01:41:41;8.33;;;6.83;;
705;SDS011;21234;48.690;9.016;2022-07-22T01:44:07;7.07;;;6.33;;
705;SDS011;21234;48.690;9.016;2022-07-22T01:46:34;6.60;;;6.00;;
705;SDS011;21234;48.690;9.016;2022-07-22T01:49:01;6.80;;;6.20;;
705;SDS011;21234;48.690;9.016;2022-07-22T01:51:28;8.30;;;6.80;;
705;SDS011;21234;48.690;9.016;2022-07-22T01:53:55;6.63;;;6.00;;
705;SDS011;21234;48.690;9.016;2022-07-22T01:56:23;8.50;;;7.03;;
705;SDS011;21234;48.690;9.016;2022-07-22T01:58:50;7.63;;;6.80;;
705;SDS011;21234;48.690;9.016;2022-07-22T02:01:17;7.63;;;6.93;;
705;SDS011;21234;48.690;9.016;2022-07-22T02:03:44;7.00;;;6.40;;
705;SDS011;21234;48.690;9.016;2022-07-22T02:06:10;7.87;;;6.27;;
705;SDS011;21234;48.690;9.016;2022-07-22T02:08:38;10.40;;;8.73;;
705;SDS011;21234;48.690;9.016;2022-07-22T02:11:04;6.70;;;6.00;;
705;SDS011;21234;48.690;9.016;2022-07-22T02:13:33;7.03;;;5.83;;
705;SDS011;21234;48.690;9.016;2022-07-22T02:15:59;7.07;;;6.33;;
705;SDS011;21234;48.690;9.016;2022-07-22T02:18:27;6.70;;;6.20;;
705;SDS011;21234;48.690;9.016;2022-07-22T02:20:54;7.53;;;6.93;;
705;SDS011;21234;48.690;9.016;2022-07-22T02:23:21;7.10;;;6.40;;
705;SDS011;21234;48.690;9.016;2022-07-22T02:25:48;7.40;;;6.67;;
705;SDS011;21234;48.690;9.016;2022-07-22T02:28:15;6.90;;;6.30;;
705;SDS011;21234;48.690;9.016;2022-07-22T02:30:43;7.57;;;6.60;;
705;SDS011;21234;48.690;9.016;2022-07-22T02:33:10;6.63;;;5.97;;
705;SDS011;21234;48.690;9.016;2022-07-22T02:35:36;9.37;;;6.50;;
705;SDS011;21234;48.690;9.016;2022-07-22T02:38:03;6.70;;;6.00;;
705;SDS011;21234;48.690;9.016;2022-07-22T02:40:30;6.20;;;5.60;;
705;SDS011;21234;48.690;9.016;2022-07-22T02:42:57;6.60;;;5.90;;
705;SDS011;21234;48.690;9.016;2022-07-22T02:45:24;6.63;;;6.00;;
705;SDS011;21234;48.690;9.016;2022-07-22T02:47:53;7.60;;;6.90;;
705;SDS011;21234;48.690;9.016;2022-07-22T02:50:21;8.40;;;7.60;;
705;SDS011;21234;48.690;9.016;2022-07-22T02:52:50;7.10;;;6.40;;
705;SDS011;21234;48.690;9.016;2022-07-22T02:55:17;7.60;;;6.80;;
705;SDS011;21234;48.690;9.016;2022-07-22T02:57:44;7.53;;;6.83;;
705;SDS011;21234;48.690;9.016;2022-07-22T03:00:11;7.73;;;7.00;;
705;SDS011;21234;48.690;9.016;2022-07-22T03:02:39;7.33;;;6.60;;
705;SDS011;21234;48.690;9.016;2022-07-22T03:05:08;8.10;;;7.40;;
705;SDS011;21234;48.690;9.016;2022-07-22T03:07:35;9.30;;;6.20;;
705;SDS011;21234;48.690;9.016;2022-07-22T03:10:02;7.30;;;6.60;;
705;SDS011;21234;48.690;9.016;2022-07-22T03:12:30;7.37;;;6.77;;
705;SDS011;21234;48.690;9.016;2022-07-22T03:14:56;7.10;;;6.37;;
705;SDS011;21234;48.690;9.016;2022-07-22T03:17:23;7.73;;;6.77;;
705;SDS011;21234;48.690;9.016;2022-07-22T03:19:50;6.70;;;6.10;;
705;SDS011;21234;48.690;9.016;2022-07-22T03:22:18;7.70;;;7.00;;
705;SDS011;21234;48.690;9.016;2022-07-22T03:24:45;7.40;;;6.70;;
705;SDS011;21234;48.690;9.016;2022-07-22T03:27:11;6.83;;;6.13;;
705;SDS011;21234;48.690;9.016;2022-07-22T03:29:38;7.10;;;6.40;;
705;SDS011;21234;48.690;9.016;2022-07-22T03:32:05;6.13;;;5.60;;
705;SDS011;21234;48.690;9.016;2022-07-22T03:34:32;6.17;;;5.57;;
705;SDS011;21234;48.690;9.016;2022-07-22T03:36:58;7.40;;;6.70;;
705;SDS011;21234;48.690;9.016;2022-07-22T03:39:26;7.93;;;6.63;;
705;SDS011;21234;48.690;9.016;2022-07-22T03:41:53;8.40;;;7.57;;
705;SDS011;21234;48.690;9.016;2022-07-22T03:44:20;8.13;;;7.10;;
705;SDS011;21234;48.690;9.016;2022-07-22T03:46:47;6.57;;;6.00;;
705;SDS011;21234;48.690;9.016;2022-07-22T03:49:14;7.90;;;7.10;;
705;SDS011;21234;48.690;9.016;2022-07-22T03:51:40;8.53;;;6.57;;
705;SDS011;21234;48.690;9.016;2022-07-22T03:54:07;8.87;;;6.97;;
705;SDS011;21234;48.690;9.016;2022-07-22T03:56:35;9.63;;;6.20;;
705;SDS011;21234;48.690;9.016;2022-07-22T03:59:02;9.50;;;6.67;;
705;SDS011;21234;48.690;9.016;2022-07-22T04:01:29;6.80;;;6.20;;
705;SDS011;21234;48.690;9.016;2022-07-22T04:03:56;6.83;;;6.10;;
705;SDS011;21234;48.690;9.016;2022-07-22T04:06:22;7.83;;;7.23;;
705;SDS011;21234;48.690;9.016;2022-07-22T04:08:49;12.50;;;7.33;;
705;SDS011;21234;48.690;9.016;2022-07-22T04:11:16;7.03;;;6.43;;
705;SDS011;21234;48.690;9.016;2022-07-22T04:13:44;7.83;;;7.03;;
705;SDS011;21234;48.690;9.016;2022-07-22T04:16:11;9.10;;;7.97;;
705;SDS011;21234;48.690;9.016;2022-07-22T04:18:37;7.90;;;7.20;;
705;SDS011;21234;48.690;9.016;2022-07-22T04:21:04;7.87;;;7.07;;
705;SDS011;21234;48.690;9.016;2022-07-22T04:23:31;8.77;;;7.90;;
705;SDS011;21234;48.690;9.016;2022-07-22T04:25:58;8.40;;;7.60;;
705;SDS011;21234;48.690;9.016;2022-07-22T04:28:24;8.30;;;7.50;;
705;SDS011;21234;48.690;9.016;2022-07-22T04:30:52;7.40;;;6.70;;
705;SDS011;21234;48.690;9.016;2022-07-22T04:33:19;8.70;;;7.70;;
705;SDS011;21234;48.690;9.016;2022-07-22T04:35:46;7.00;;;6.30;;
705;SDS011;21234;48.690;9.016;2022-07-22T04:38:13;8.90;;;7.00;;
705;SDS011;21234;48.690;9.016;2022-07-22T04:40:42;8.53;;;7.10;;
705;SDS011;21234;48.690;9.016;2022-07-22T04:43:09;8.63;;;7.73;;
705;SDS011;21234;48.690;9.016;2022-07-22T04:45:35;8.57;;;7.47;;
705;SDS011;21234;48.690;9.016;2022-07-22T04:48:03;8.10;;;7.40;;
705;SDS011;21234;48.690;9.016;2022-07-22T04:50:30;8.93;;;8.10;;
705;SDS011;21234;48.690;9.016;2022-07-22T04:52:57;8.60;;;7.00;;
705;SDS011;21234;48.690;9.016;2022-07-22T04:55:24;8.13;;;7.37;;
705;SDS011;21234;48.690;9.016;2022-07-22T04:57:51;9.97;;;7.90;;
705;SDS011;21234;48.690;9.016;2022-07-22T05:00:18;8.80;;;7.90;;
705;SDS011;21234;48.690;9.016;2022-07-22T05:02:44;8.13;;;7.30;;
705;SDS011;21234;48.690;9.016;2022-07-22T05:05:12;9.20;;;8.30;;
705;SDS011;21234;48.690;9.016;2022-07-22T05:07:39;10.37;;;8.60;;
705;SDS011;21234;48.690;9.016;2022-07-22T05:10:06;8.53;;;7.47;;
705;SDS011;21234;48.690;9.016;2022-07-22T05:12:33;10.80;;;8.63;;
705;SDS011;21234;48.690;9.016;2022-07-22T05:15:01;9.83;;;8.80;;
705;SDS011;21234;48.690;9.016;2022-07-22T05:17:28;12.33;;;9.57;;
705;SDS011;21234;48.690;9.016;2022-07-22T05:19:55;10.43;;;9.43;;
705;SDS011;21234;48.690;9.016;2022-07-22T05:22:23;10.70;;;9.43;;
705;SDS011;21234;48.690;9.016;2022-07-22T05:24:49;11.40;;;9.90;;
705;SDS011;21234;48.690;9.016;2022-07-22T05:27:16;11.47;;;7.90;;
705;SDS011;21234;48.690;9.016;2022-07-22T05:29:43;9.47;;;8.57;;
705;SDS011;21234;48.690;9.016;2022-07-22T05:32:10;11.10;;;9.50;;
705;SDS011;21234;48.690;9.016;2022-07-22T05:34:36;10.53;;;8.40;;
705;SDS011;21234;48.690;9.016;2022-07-22T05:37:03;10.20;;;8.97;;
705;SDS011;21234;48.690;9.016;2022-07-22T05:39:31;9.40;;;8.40;;
705;SDS011;21234;48.690;9.016;2022-07-22T05:41:58;10.40;;;9.10;;
705;SDS011;21234;48.690;9.016;2022-07-22T05:44:24;9.47;;;8.57;;
705;SDS011;21234;48.690;9.016;2022-07-22T05:46:51;12.60;;;9.60;;
705;SDS011;21234;48.690;9.016;2022-07-22T05:49:18;9.70;;;8.70;;
705;SDS011;21234;48.690;9.016;2022-07-22T05:51:47;11.43;;;8.63;;
705;SDS011;21234;48.690;9.016;2022-07-22T05:54:13;11.50;;;8.60;;
705;SDS011;21234;48.690;9.016;2022-07-22T05:56:41;9.67;;;8.03;;
705;SDS011;21234;48.690;9.016;2022-07-22T05:59:08;10.27;;;8.80;;
705;SDS011;21234;48.690;9.016;2022-07-22T06:01:35;9.37;;;7.73;;
705;SDS011;21234;48.690;9.016;2022-07-22T06:04:02;9.83;;;8.90;;
705;SDS011;21234;48.690;9.016;2022-07-22T06:06:29;12.10;;;9.00;;
705;SDS011;21234;48.690;9.016;2022-07-22T06:08:55;9.53;;;8.53;;
705;SDS011;21234;48.690;9.016;2022-07-22T06:11:22;9.97;;;9.07;;
705;SDS011;21234;48.690;9.016;2022-07-22T06:13:50;8.70;;;7.90;;
705;SDS011;21234;48.690;9.016;2022-07-22T06:16:17;9.07;;;8.17;;
705;SDS011;21234;48.690;9.016;2022-07-22T06:18:44;9.30;;;7.97;;
705;SDS011;21234;48.690;9.016;2022-07-22T06:21:11;8.60;;;7.33;;
705;SDS011;21234;48.690;9.016;2022-07-22T06:23:37;9.33;;;8.37;;
705;SDS011;21234;48.690;9.016;2022-07-22T06:26:04;8.70;;;7.90;;
705;SDS011;21234;48.690;9.016;2022-07-22T06:28:33;8.93;;;8.07;;
705;SDS011;21234;48.690;9.016;2022-07-22T06:31:01;10.73;;;9.50;;
705;SDS011;21234;48.690;9.016;2022-07-22T06:33:29;8.73;;;7.17;;
705;SDS011;21234;48.690;9.016;2022-07-22T06:35:58;10.20;;;9.20;;
705;SDS011;21234;48.690;9.016;2022-07-22T06:38:25;8.67;;;7.97;;
705;SDS011;21234;48.690;9.016;2022-07-22T06:40:52;9.50;;;8.60;;
705;SDS011;21234;48.690;9.016;2022-07-22T06:43:20;9.13;;;8.33;;
705;SDS011;21234;48.690;9.016;2022-07-22T06:45:46;9.43;;;8.43;;
705;SDS011;21234;48.690;9.016;2022-07-22T06:48:15;8.93;;;8.00;;
705;SDS011;21234;48.690;9.016;2022-07-22T06:50:41;9.00;;;8.10;;
705;SDS011;21234;48.690;9.016;2022-07-22T06:53:08;9.00;;;8.20;;
705;SDS011;21234;48.690;9.016;2022-07-22T06:55:35;11.33;;;8.67;;
705;SDS011;21234;48.690;9.016;2022-07-22T06:58:02;8.70;;;8.00;;
705;SDS011;21234;48.690;9.016;2022-07-22T07:00:28;10.10;;;9.03;;
705;SDS011;21234;48.690;9.016;2022-07-22T07:02:57;10.20;;;8.83;;
705;SDS011;21234;48.690;9.016;2022-07-22T07:05:25;9.50;;;8.60;;
705;SDS011;21234;48.690;9.016;2022-07-22T07:07:53;10.40;;;9.40;;
705;SDS011;21234;48.690;9.016;2022-07-22T07:10:20;8.23;;;7.50;;
705;SDS011;21234;48.690;9.016;2022-07-22T07:12:47;9.40;;;8.50;;
705;SDS011;21234;48.690;9.016;2022-07-22T07:15:14;10.63;;;9.63;;
705;SDS011;21234;48.690;9.016;2022-07-22T07:17:41;10.13;;;8.23;;
705;SDS011;21234;48.690;9.016;2022-07-22T07:20:08;10.70;;;7.93;;
705;SDS011;21234;48.690;9.016;2022-07-22T07:22:37;9.40;;;8.57;;
705;SDS011;21234;48.690;9.016;2022-07-22T07:25:04;8.63;;;7.83;;
705;SDS011;21234;48.690;9.016;2022-07-22T07:27:31;8.77;;;7.97;;
705;SDS011;21234;48.690;9.016;2022-07-22T07:29:59;10.27;;;9.27;;
705;SDS011;21234;48.690;9.016;2022-07-22T07:32:26;8.60;;;7.90;;
705;SDS011;21234;48.690;9.016;2022-07-22T07:34:52;9.17;;;8.37;;
705;SDS011;21234;48.690;9.016;2022-07-22T07:37:19;8.33;;;7.60;;
705;SDS011;21234;48.690;9.016;2022-07-22T07:39:47;8.43;;;7.63;;
705;SDS011;21234;48.690;9.016;2022-07-22T07:42:14;13.73;;;8.97;;
705;SDS011;21234;48.690;9.016;2022-07-22T07:44:41;20.00;;;9.17;;
705;SDS011;21234;48.690;9.016;2022-07-22T07:47:08;9.23;;;8.33;;
705;SDS011;21234;48.690;9.016;2022-07-22T07:49:34;10.30;;;9.23;;
705;SDS011;21234;48.690;9.016;2022-07-22T07:52:03;11.70;;;8.80;;
705;SDS011;21234;48.690;9.016;2022-07-22T07:54:30;9.90;;;9.00;;
705;SDS011;21234;48.690;9.016;2022-07-22T07:56:58;8.93;;;8.13;;
705;SDS011;21234;48.690;9.016;2022-07-22T07:59:24;9.33;;;8.43;;
705;SDS011;21234;48.690;9.016;2022-07-22T08:01:51;8.70;;;7.90;;
705;SDS011;21234;48.690;9.016;2022-07-22T08:04:18;9.43;;;8.50;;
705;SDS011;21234;48.690;9.016;2022-07-22T08:06:44;10.07;;;9.07;;
705;SDS011;21234;48.690;9.016;2022-07-22T08:09:11;10.20;;;9.20;;
705;SDS011;21234;48.690;9.016;2022-07-22T08:11:38;9.03;;;8.30;;
705;SDS011;21234;48.690;9.016;2022-07-22T08:14:06;8.93;;;8.13;;
705;SDS011;21234;48.690;9.016;2022-07-22T08:16:34;11.60;;;8.33;;
705;SDS011;21234;48.690;9.016;2022-07-22T08:19:01;9.97;;;8.97;;
705;SDS011;21234;48.690;9.016;2022-07-22T08:21:28;9.20;;;8.40;;
705;SDS011;21234;48.690;9.016;2022-07-22T08:23:55;9.30;;;8.40;;
705;SDS011;21234;48.690;9.016;2022-07-22T08:26:21;8.60;;;7.80;;
705;SDS011;21234;48.690;9.016;2022-07-22T08:28:48;8.97;;;8.17;;
705;SDS011;21234;48.690;9.016;2022-07-22T08:31:16;8.53;;;7.83;;
705;SDS011;21234;48.690;9.016;2022-07-22T08:33:43;9.07;;;8.37;;
705;SDS011;21234;48.690;9.016;2022-07-22T08:36:10;9.57;;;8.67;;
705;SDS011;21234;48.690;9.016;2022-07-22T08:38:37;11.20;;;8.53;;
705;SDS011;21234;48.690;9.016;2022-07-22T08:41:03;8.50;;;7.90;;
705;SDS011;21234;48.690;9.016;2022-07-22T08:43:31;9.00;;;8.20;;
705;SDS011;21234;48.690;9.016;2022-07-22T08:46:02;9.13;;;8.23;;
705;SDS011;21234;48.690;9.016;2022-07-22T08:48:30;9.17;;;8.30;;
705;SDS011;21234;48.690;9.016;2022-07-22T08:50:57;9.33;;;7.80;;
705;SDS011;21234;48.690;9.016;2022-07-22T08:53:24;8.90;;;8.00;;
705;SDS011;21234;48.690;9.016;2022-07-22T08:55:51;8.30;;;7.50;;
705;SDS011;21234;48.690;9.016;2022-07-22T08:58:17;7.77;;;6.97;;
705;SDS011;21234;48.690;9.016;2022-07-22T09:00:44;7.93;;;7.13;;
705;SDS011;21234;48.690;9.016;2022-07-22T09:03:21;8.00;;;7.40;;
705;SDS011;21234;48.690;9.016;2022-07-22T09:05:51;9.27;;;8.40;;
705;SDS011;21234;48.690;9.016;2022-07-22T09:08:19;8.83;;;7.90;;
705;SDS011;21234;48.690;9.016;2022-07-22T09:10:46;9.00;;;7.50;;
705;SDS011;21234;48.690;9.016;2022-07-22T09:13:14;8.97;;;7.17;;
705;SDS011;21234;48.690;9.016;2022-07-22T09:15:45;7.83;;;7.13;;
705;SDS011;21234;48.690;9.016;2022-07-22T09:18:12;9.20;;;7.33;;
705;SDS011;21234;48.690;9.016;2022-07-22T09:20:39;6.80;;;6.20;;
705;SDS011;21234;48.690;9.016;2022-07-22T09:23:10;8.67;;;7.87;;
705;SDS011;21234;48.690;9.016;2022-07-22T09:25:38;8.10;;;7.40;;
705;SDS011;21234;48.690;9.016;2022-07-22T09:28:12;9.23;;;8.27;;
705;SDS011;21234;48.690;9.016;2022-07-22T09:30:45;7.43;;;6.70;;
705;SDS011;21234;48.690;9.016;2022-07-22T09:33:13;8.67;;;7.27;;
705;SDS011;21234;48.690;9.016;2022-07-22T09:35:40;8.40;;;6.30;;
705;SDS011;21234;48.690;9.016;2022-07-22T09:38:08;8.50;;;7.80;;
705;SDS011;21234;48.690;9.016;2022-07-22T09:40:38;7.90;;;7.20;;
705;SDS011;21234;48.690;9.016;2022-07-22T09:43:06;8.10;;;7.30;;
705;SDS011;21234;48.690;9.016;2022-07-22T09:45:37;8.40;;;7.63;;
705;SDS011;21234;48.690;9.016;2022-07-22T09:48:12;9.67;;;8.90;;
705;SDS011;21234;48.690;9.016;2022-07-22T09:50:39;9.90;;;9.00;;
705;SDS011;21234;48.690;9.016;2022-07-22T09:53:06;9.17;;;8.40;;
705;SDS011;21234;48.690;9.016;2022-07-22T09:55:33;7.63;;;6.93;;
705;SDS011;21234;48.690;9.016;2022-07-22T09:58:04;9.03;;;7.53;;
705;SDS011;21234;48.690;9.016;2022-07-22T10:00:32;8.50;;;7.80;;
705;SDS011;21234;48.690;9.016;2022-07-22T10:03:01;8.10;;;7.40;;
705;SDS011;21234;48.690;9.016;2022-07-22T10:05:30;8.73;;;7.90;;
705;SDS011;21234;48.690;9.016;2022-07-22T10:07:59;8.37;;;7.57;;
705;SDS011;21234;48.690;9.016;2022-07-22T10:10:27;8.80;;;8.10;;
705;SDS011;21234;48.690;9.016;2022-07-22T10:12:57;9.60;;;8.77;;
705;SDS011;21234;48.690;9.016;2022-07-22T10:15:27;8.60;;;7.70;;
705;SDS011;21234;48.690;9.016;2022-07-22T10:17:56;9.67;;;8.80;;
705;SDS011;21234;48.690;9.016;2022-07-22T10:20:24;8.73;;;7.93;;
705;SDS011;21234;48.690;9.016;2022-07-22T10:22:55;8.30;;;7.60;;
705;SDS011;21234;48.690;9.016;2022-07-22T10:25:24;8.23;;;7.63;;
705;SDS011;21234;48.690;9.016;2022-07-22T10:27:53;7.27;;;6.77;;
705;SDS011;21234;48.690;9.016;2022-07-22T10:30:22;8.47;;;7.47;;
705;SDS011;21234;48.690;9.016;2022-07-22T10:33:11;9.43;;;8.40;;
705;SDS011;21234;48.690;9.016;2022-07-22T10:35:51;7.70;;;7.00;;
705;SDS011;21234;48.690;9.016;2022-07-22T10:38:20;7.77;;;7.07;;
705;SDS011;21234;48.690;9.016;2022-07-22T10:40:51;7.13;;;6.60;;
705;SDS011;21234;48.690;9.016;2022-07-22T10:43:20;8.90;;;8.20;;
705;SDS011;21234;48.690;9.016;2022-07-22T10:45:49;8.30;;;7.60;;
705;SDS011;21234;48.690;9.016;2022-07-22T10:48:20;9.67;;;8.70;;
705;SDS011;21234;48.690;9.016;2022-07-22T10:50:53;8.57;;;7.80;;
705;SDS011;21234;48.690;9.016;2022-07-22T10:53:22;9.10;;;8.17;;
705;SDS011;21234;48.690;9.016;2022-07-22T10:55:57;8.43;;;7.73;;
705;SDS011;21234;48.690;9.016;2022-07-22T10:58:48;8.87;;;7.90;;
705;SDS011;21234;48.690;9.016;2022-07-22T11:01:20;7.67;;;7.07;;
705;SDS011;21234;48.690;9.016;2022-07-22T11:03:49;8.57;;;7.40;;
705;SDS011;21234;48.690;9.016;2022-07-22T11:06:18;8.50;;;7.70;;
705;SDS011;21234;48.690;9.016;2022-07-22T11:08:47;7.60;;;6.90;;
705;SDS011;21234;48.690;9.016;2022-07-22T11:11:16;7.60;;;6.90;;
705;SDS011;21234;48.690;9.016;2022-07-22T11:13:43;7.17;;;6.57;;
705;SDS011;21234;48.690;9.016;2022-07-22T11:16:14;8.37;;;7.57;;
705;SDS011;21234;48.690;9.016;2022-07-22T11:18:46;7.87;;;7.07;;
705;SDS011;21234;48.690;9.016;2022-07-22T11:21:17;7.30;;;6.70;;
705;SDS011;21234;48.690;9.016;2022-07-22T11:23:46;8.90;;;8.10;;
705;SDS011;21234;48.690;9.016;2022-07-22T11:26:14;8.20;;;7.50;;
705;SDS011;21234;48.690;9.016;2022-07-22T11:28:42;8.37;;;7.67;;
705;SDS011;21234;48.690;9.016;2022-07-22T11:31:12;8.13;;;7.43;;
705;SDS011;21234;48.690;9.016;2022-07-22T11:33:41;7.77;;;7.17;;
705;SDS011;21234;48.690;9.016;2022-07-22T11:36:08;8.10;;;7.50;;
705;SDS011;21234;48.690;9.016;2022-07-22T11:38:40;8.50;;;7.80;;
705;SDS011;21234;48.690;9.016;2022-07-22T11:41:08;9.00;;;8.20;;
705;SDS011;21234;48.690;9.016;2022-07-22T11:43:39;7.43;;;6.83;;
705;SDS011;21234;48.690;9.016;2022-07-22T11:46:07;7.10;;;6.50;;
705;SDS011;21234;48.690;9.016;2022-07-22T11:48:34;7.53;;;6.70;;
705;SDS011;21234;48.690;9.016;2022-07-22T11:51:02;7.50;;;6.90;;
705;SDS011;21234;48.690;9.016;2022-07-22T11:53:30;8.17;;;7.37;;
705;SDS011;21234;48.690;9.016;2022-07-22T11:55:59;7.97;;;7.30;;
705;SDS011;21234;48.690;9.016;2022-07-22T12:01:10;7.43;;;6.83;;
705;SDS011;21234;48.690;9.016;2022-07-22T12:03:40;8.10;;;7.50;;
705;SDS011;21234;48.690;9.016;2022-07-22T12:06:10;7.90;;;7.20;;
705;SDS011;21234;48.690;9.016;2022-07-22T12:08:39;7.40;;;6.80;;
705;SDS011;21234;48.690;9.016;2022-07-22T12:11:10;8.30;;;7.70;;
705;SDS011;21234;48.690;9.016;2022-07-22T12:13:40;8.23;;;7.53;;
705;SDS011;21234;48.690;9.016;2022-07-22T12:16:22;9.50;;;8.70;;
705;SDS011;21234;48.690;9.016;2022-07-22T12:18:52;8.83;;;7.97;;
705;SDS011;21234;48.690;9.016;2022-07-22T12:21:21;8.37;;;7.60;;
705;SDS011;21234;48.690;9.016;2022-07-22T12:23:49;7.27;;;6.67;;
705;SDS011;21234;48.690;9.016;2022-07-22T12:29:24;8.17;;;7.47;;
705;SDS011;21234;48.690;9.016;2022-07-22T12:31:52;8.03;;;7.33;;
705;SDS011;21234;48.690;9.016;2022-07-22T12:34:33;7.70;;;6.90;;
705;SDS011;21234;48.690;9.016;2022-07-22T12:37:10;7.30;;;6.60;;
705;SDS011;21234;48.690;9.016;2022-07-22T12:39:38;8.13;;;7.13;;
705;SDS011;21234;48.690;9.016;2022-07-22T12:42:15;8.07;;;7.37;;
705;SDS011;21234;48.690;9.016;2022-07-22T12:44:51;7.80;;;7.10;;
705;SDS011;21234;48.690;9.016;2022-07-22T12:52:52;7.63;;;6.67;;
705;SDS011;21234;48.690;9.016;2022-07-22T12:55:21;8.40;;;7.40;;
705;SDS011;21234;48.690;9.016;2022-07-22T12:57:48;7.53;;;6.93;;
705;SDS011;21234;48.690;9.016;2022-07-22T13:00:17;6.80;;;6.20;;
705;SDS011;21234;48.690;9.016;2022-07-22T13:02:45;7.73;;;7.00;;
705;SDS011;21234;48.690;9.016;2022-07-22T13:05:14;9.10;;;8.33;;
705;SDS011;21234;48.690;9.016;2022-07-22T13:07:41;7.47;;;6.77;;
705;SDS011;21234;48.690;9.016;2022-07-22T13:10:09;7.33;;;6.73;;
705;SDS011;21234;48.690;9.016;2022-07-22T13:12:37;7.07;;;6.47;;
705;SDS011;21234;48.690;9.016;2022-07-22T13:15:05;7.97;;;7.33;;
705;SDS011;21234;48.690;9.016;2022-07-22T13:17:34;8.50;;;7.70;;
705;SDS011;21234;48.690;9.016;2022-07-22T13:20:01;9.77;;;6.87;;
705;SDS011;21234;48.690;9.016;2022-07-22T13:22:29;7.70;;;7.00;;
705;SDS011;21234;48.690;9.016;2022-07-22T13:24:57;6.60;;;6.10;;
705;SDS011;21234;48.690;9.016;2022-07-22T13:27:23;8.07;;;7.47;;
705;SDS011;21234;48.690;9.016;2022-07-22T13:29:50;9.97;;;9.10;;
705;SDS011;21234;48.690;9.016;2022-07-22T13:32:17;7.77;;;7.17;;
705;SDS011;21234;48.690;9.016;2022-07-22T13:34:45;7.63;;;7.03;;
705;SDS011;21234;48.690;9.016;2022-07-22T13:37:12;8.43;;;7.67;;
705;SDS011;21234;48.690;9.016;2022-07-22T13:39:38;7.47;;;6.80;;
705;SDS011;21234;48.690;9.016;2022-07-22T13:42:07;7.07;;;6.47;;
705;SDS011;21234;48.690;9.016;2022-07-22T13:44:34;7.33;;;6.73;;
705;SDS011;21234;48.690;9.016;2022-07-22T13:47:01;8.80;;;8.00;;
705;SDS011;21234;48.690;9.016;2022-07-22T13:49:28;9.20;;;8.20;;
705;SDS011;21234;48.690;9.016;2022-07-22T13:51:56;7.20;;;6.70;;
705;SDS011;21234;48.690;9.016;2022-07-22T13:54:23;8.43;;;7.63;;
705;SDS011;21234;48.690;9.016;2022-07-22T13:56:50;8.60;;;7.93;;
705;SDS011;21234;48.690;9.016;2022-07-22T13:59:16;8.20;;;7.53;;
705;SDS011;21234;48.690;9.016;2022-07-22T14:01:43;8.63;;;7.97;;
705;SDS011;21234;48.690;9.016;2022-07-22T14:04:10;7.77;;;7.17;;
705;SDS011;21234;48.690;9.016;2022-07-22T14:06:37;7.83;;;7.13;;
705;SDS011;21234;48.690;9.016;2022-07-22T14:09:05;7.30;;;6.70;;
705;SDS011;21234;48.690;9.016;2022-07-22T14:11:32;8.33;;;7.73;;
705;SDS011;21234;48.690;9.016;2022-07-22T14:13:59;8.00;;;7.30;;
705;SDS011;21234;48.690;9.016;2022-07-22T14:16:25;8.10;;;7.40;;
705;SDS011;21234;48.690;9.016;2022-07-22T14:19:02;7.30;;;6.70;;
705;SDS011;21234;48.690;9.016;2022-07-22T14:21:30;9.27;;;7.93;;
705;SDS011;21234;48.690;9.016;2022-07-22T14:23:57;7.40;;;6.70;;
705;SDS011;21234;48.690;9.016;2022-07-22T14:26:25;7.83;;;7.13;;
705;SDS011;21234;48.690;9.016;2022-07-22T14:28:52;7.90;;;7.23;;
705;SDS011;21234;48.690;9.016;2022-07-22T14:31:19;6.63;;;6.13;;
705;SDS011;21234;48.690;9.016;2022-07-22T14:33:46;8.97;;;8.17;;
705;SDS011;21234;48.690;9.016;2022-07-22T14:36:14;7.60;;;7.00;;
705;SDS011;21234;48.690;9.016;2022-07-22T14:38:41;7.40;;;6.80;;
705;SDS011;21234;48.690;9.016;2022-07-22T14:41:08;7.63;;;7.03;;
705;SDS011;21234;48.690;9.016;2022-07-22T14:43:36;7.33;;;6.73;;
705;SDS011;21234;48.690;9.016;2022-07-22T14:46:04;8.60;;;7.70;;
705;SDS011;21234;48.690;9.016;2022-07-22T14:48:32;8.33;;;7.73;;
705;SDS011;21234;48.690;9.016;2022-07-22T14:51:00;7.80;;;7.10;;
705;SDS011;21234;48.690;9.016;2022-07-22T14:53:27;8.00;;;7.40;;
705;SDS011;21234;48.690;9.016;2022-07-22T14:55:55;8.40;;;7.70;;
705;SDS011;21234;48.690;9.016;2022-07-22T14:58:22;7.60;;;6.83;;
705;SDS011;21234;48.690;9.016;2022-07-22T15:00:50;6.40;;;5.83;;
705;SDS011;21234;48.690;9.016;2022-07-22T15:03:17;7.23;;;6.63;;
705;SDS011;21234;48.690;9.016;2022-07-22T15:05:44;7.37;;;6.77;;
705;SDS011;21234;48.690;9.016;2022-07-22T15:08:11;7.73;;;7.13;;
705;SDS011;21234;48.690;9.016;2022-07-22T15:10:38;7.30;;;6.77;;
705;SDS011;21234;48.690;9.016;2022-07-22T15:13:05;8.30;;;7.60;;
705;SDS011;21234;48.690;9.016;2022-07-22T15:15:33;8.13;;;7.43;;
705;SDS011;21234;48.690;9.016;2022-07-22T15:18:02;8.63;;;6.20;;
705;SDS011;21234;48.690;9.016;2022-07-22T15:20:30;7.50;;;6.90;;
705;SDS011;21234;48.690;9.016;2022-07-22T15:22:57;8.73;;;7.93;;
705;SDS011;21234;48.690;9.016;2022-07-22T15:25:24;7.80;;;7.10;;
705;SDS011;21234;48.690;9.016;2022-07-22T15:27:52;7.43;;;6.83;;
705;SDS011;21234;48.690;9.016;2022-07-22T15:30:18;8.43;;;7.73;;